createdAt,value
2022-07-26T00:01:41.228Z,5.10
2022-07-26T00:07:01.827Z,7.47
2022-07-26T00:12:22.570Z,7.20
2022-07-26T00:17:43.243Z,5.05
2022-07-26T00:23:03.945Z,5.70
2022-07-26T00:28:24.676Z,4.40
2022-07-26T00:33:45.272Z,7.60
2022-07-26T00:39:06.348Z,6.95
2022-07-26T00:44:40.603Z,4.38
2022-07-26T00:50:01.724Z,7.55
2022-07-26T00:55:22.837Z,5.43
2022-07-26T01:00:43.741Z,11.18
2022-07-26T01:06:05.563Z,7.80
2022-07-26T01:11:26.224Z,9.25
2022-07-26T01:16:47.443Z,6.03
2022-07-26T01:22:13.885Z,5.97
2022-07-26T01:27:39.424Z,6.25
2022-07-26T01:33:00.719Z,6.97
2022-07-26T01:38:27.556Z,6.82
2022-07-26T01:43:48.132Z,6.22
2022-07-26T01:49:09.435Z,5.95
2022-07-26T01:54:30.495Z,8.10
2022-07-26T01:59:51.052Z,4.47
2022-07-26T02:05:12.657Z,7.60
2022-07-26T02:10:52.749Z,4.90
2022-07-26T02:16:15.140Z,4.70
2022-07-26T02:21:35.854Z,7.50
2022-07-26T02:26:57.638Z,6.47
2022-07-26T02:32:18.843Z,7.18
2022-07-26T02:37:43.830Z,9.98
2022-07-26T02:43:07.409Z,6.68
2022-07-26T02:48:28.159Z,9.23
2022-07-26T02:53:48.711Z,10.13
2022-07-26T02:59:09.320Z,8.55
2022-07-26T03:04:30.455Z,12.07
2022-07-26T03:09:51.056Z,9.25
2022-07-26T03:15:12.233Z,9.63
2022-07-26T03:20:32.949Z,9.27
2022-07-26T03:25:53.814Z,9.52
2022-07-26T03:31:14.756Z,18.55
2022-07-26T03:36:35.362Z,17.15
2022-07-26T03:41:55.957Z,16.90
2022-07-26T03:47:16.798Z,17.48
2022-07-26T03:52:37.469Z,22.38
2022-07-26T03:57:58.453Z,30.90
2022-07-26T04:03:19.237Z,32.63
2022-07-26T04:08:40.106Z,51.50
2022-07-26T04:14:01.249Z,55.88
2022-07-26T04:19:21.963Z,69.38
2022-07-26T04:24:42.575Z,71.95
2022-07-26T04:30:04.768Z,75.38
2022-07-26T04:35:26.072Z,82.20
2022-07-26T04:40:47.138Z,83.55
2022-07-26T04:46:09.457Z,100.72
2022-07-26T04:51:30.022Z,100.43
2022-07-26T04:56:50.808Z,103.90
2022-07-26T05:02:11.644Z,98.50
2022-07-26T05:07:47.720Z,88.15
2022-07-26T05:13:08.710Z,76.45
2022-07-26T05:18:31.963Z,66.10
2022-07-26T05:24:07.983Z,53.45
2022-07-26T05:29:28.829Z,38.08
2022-07-26T05:34:49.865Z,31.00
2022-07-26T05:40:11.857Z,28.73
2022-07-26T05:45:32.620Z,23.45
2022-07-26T05:50:53.195Z,18.65
2022-07-26T05:56:13.843Z,12.93
2022-07-26T06:01:35.076Z,11.63
2022-07-26T06:06:56.829Z,11.15
2022-07-26T06:12:17.710Z,11.88
2022-07-26T06:17:41.308Z,9.70
2022-07-26T06:23:02.010Z,7.13
2022-07-26T06:28:22.684Z,8.40
2022-07-26T06:33:43.244Z,8.00
2022-07-26T06:39:04.941Z,8.90
2022-07-26T06:44:26.492Z,4.40
2022-07-26T06:49:47.247Z,13.98
2022-07-26T06:55:09.177Z,7.07
2022-07-26T07:00:33.224Z,6.13
2022-07-26T07:05:53.783Z,9.77
2022-07-26T07:11:14.394Z,11.82
2022-07-26T07:16:38.606Z,21.30
2022-07-26T07:21:59.701Z,30.92
2022-07-26T07:27:20.982Z,28.10
2022-07-26T07:32:41.489Z,30.55
2022-07-26T07:38:02.079Z,31.20
2022-07-26T07:43:22.580Z,31.45
2022-07-26T07:48:47.397Z,24.05
2022-07-26T07:54:09.395Z,20.15
2022-07-26T07:59:30.299Z,18.35
2022-07-26T08:04:51.022Z,21.25
2022-07-26T08:10:11.683Z,18.55
2022-07-26T08:15:32.541Z,18.67
2022-07-26T08:20:53.771Z,17.17
2022-07-26T08:26:14.381Z,10.50
2022-07-26T08:31:35.120Z,8.30
2022-07-26T08:37:16.077Z,7.88
2022-07-26T08:42:36.905Z,8.68
2022-07-26T08:53:40.125Z,6.20
2022-07-26T08:59:18.585Z,8.38
2022-07-26T09:10:09.458Z,6.93
2022-07-26T09:15:30.388Z,3.85
2022-07-26T09:20:51.272Z,8.63
2022-07-26T09:26:11.829Z,5.57
2022-07-26T09:31:33.106Z,2.25
2022-07-26T09:36:55.275Z,3.70
2022-07-26T09:42:28.489Z,2.50
2022-07-26T09:47:49.842Z,5.97
2022-07-26T09:53:13.246Z,2.05
2022-07-26T09:58:34.025Z,2.03
2022-07-26T10:03:55.250Z,3.35
2022-07-26T10:09:17.190Z,2.53
2022-07-26T10:14:45.874Z,3.35
2022-07-26T10:20:16.901Z,2.97
2022-07-26T10:25:49.114Z,1.52
2022-07-26T10:31:25.970Z,2.13
2022-07-26T10:36:57.825Z,1.15
2022-07-26T10:42:19.771Z,2.22
2022-07-26T10:48:15.603Z,2.60
2022-07-26T10:53:36.584Z,3.38
2022-07-26T10:58:57.555Z,2.22
2022-07-26T11:04:24.690Z,2.05
2022-07-26T11:09:45.420Z,2.85
2022-07-26T11:15:19.263Z,4.13
2022-07-26T11:20:41.145Z,0.82
2022-07-26T11:26:04.603Z,1.88
2022-07-26T11:31:49.412Z,0.98
2022-07-26T11:37:16.200Z,2.38
2022-07-26T11:42:37.288Z,2.60
2022-07-26T11:47:59.017Z,1.85
2022-07-26T11:53:23.263Z,1.95
2022-07-26T11:58:46.322Z,3.65
2022-07-26T12:04:19.492Z,3.15
2022-07-26T12:09:50.443Z,3.00
2022-07-26T12:15:12.592Z,1.10
2022-07-26T12:20:33.569Z,1.42
2022-07-26T12:25:54.208Z,2.33
2022-07-26T12:31:32.939Z,2.70
2022-07-26T12:36:54.010Z,1.80
2022-07-26T12:42:33.062Z,1.23
2022-07-26T12:47:57.136Z,1.35
2022-07-26T12:53:17.997Z,5.78
2022-07-26T12:58:38.666Z,3.53
2022-07-26T13:04:00.135Z,1.98
2022-07-26T13:09:20.862Z,2.30
2022-07-26T13:14:42.258Z,2.50
2022-07-26T13:20:02.891Z,5.05
2022-07-26T13:25:23.745Z,1.65
2022-07-26T13:30:45.898Z,4.65
2022-07-26T13:36:06.661Z,2.50
2022-07-26T13:41:27.530Z,1.70
2022-07-26T13:46:51.739Z,2.60
2022-07-26T13:52:16.674Z,1.63
2022-07-26T13:57:48.030Z,1.35
2022-07-26T14:03:17.463Z,3.33
2022-07-26T14:08:38.618Z,2.10
2022-07-26T14:13:59.356Z,3.38
2022-07-26T14:19:20.097Z,8.40
2022-07-26T14:24:40.916Z,1.05
2022-07-26T14:30:02.480Z,3.92
2022-07-26T14:35:23.054Z,0.85
2022-07-26T14:40:43.710Z,2.60
2022-07-26T14:46:04.866Z,2.50
2022-07-26T14:51:25.678Z,0.82
2022-07-26T14:56:48.213Z,1.17
2022-07-26T15:02:11.876Z,1.42
2022-07-26T15:07:32.697Z,2.00
2022-07-26T15:12:53.703Z,2.22
2022-07-26T15:18:14.420Z,3.03
2022-07-26T15:23:35.110Z,3.10
2022-07-26T15:28:56.052Z,0.93
2022-07-26T15:34:16.796Z,1.85
2022-07-26T15:39:37.474Z,1.58
2022-07-26T15:44:58.550Z,1.17
2022-07-26T15:50:19.193Z,0.50
2022-07-26T15:55:40.782Z,0.63
2022-07-26T16:01:01.625Z,0.77
2022-07-26T16:06:22.365Z,1.38
2022-07-26T16:11:43.029Z,2.70
2022-07-26T16:17:03.991Z,3.58
2022-07-26T16:22:25.052Z,1.27
2022-07-26T16:27:46.080Z,1.15
2022-07-26T16:33:06.894Z,0.38
2022-07-26T16:38:27.436Z,2.55
2022-07-26T16:43:48.101Z,0.82
2022-07-26T16:49:09.216Z,1.33
2022-07-26T16:54:31.143Z,1.00
2022-07-26T16:59:51.683Z,1.48
2022-07-26T17:05:12.448Z,1.60
2022-07-26T17:10:33.116Z,3.92
2022-07-26T17:15:54.257Z,1.75
2022-07-26T17:21:15.127Z,2.22
2022-07-26T17:26:36.465Z,3.45
2022-07-26T17:31:58.171Z,0.70
2022-07-26T17:37:18.772Z,0.65
2022-07-26T17:42:42.678Z,1.75
2022-07-26T17:48:06.397Z,3.08
2022-07-26T17:53:34.151Z,1.75
2022-07-26T17:58:55.906Z,2.00
2022-07-26T18:04:18.007Z,0.50
2022-07-26T18:09:38.672Z,4.10
2022-07-26T18:14:59.410Z,0.40
2022-07-26T18:20:20.127Z,0.77
2022-07-26T18:25:45.304Z,2.55
2022-07-26T18:31:06.180Z,0.50
2022-07-26T18:36:31.712Z,0.40
2022-07-26T18:41:52.340Z,3.65
2022-07-26T18:47:13.026Z,1.30
2022-07-26T18:52:33.893Z,2.00
2022-07-26T18:57:55.008Z,2.60
2022-07-26T19:03:16.696Z,1.92
2022-07-26T19:08:37.364Z,1.80
2022-07-26T19:13:58.033Z,2.05
2022-07-26T19:19:20.248Z,5.03
2022-07-26T19:24:40.922Z,2.75
2022-07-26T19:30:01.778Z,1.65
2022-07-26T19:35:23.007Z,2.65
2022-07-26T19:40:44.678Z,1.90
2022-07-26T19:46:05.830Z,2.60
2022-07-26T19:51:26.727Z,1.98
2022-07-26T19:56:47.725Z,4.85
2022-07-26T20:02:08.329Z,5.82
2022-07-26T20:07:29.406Z,3.60
2022-07-26T20:12:50.114Z,5.20
2022-07-26T20:18:10.926Z,7.18
2022-07-26T20:23:33.133Z,6.18
2022-07-26T20:28:55.332Z,14.95
2022-07-26T20:34:16.156Z,6.22
2022-07-26T20:39:36.864Z,8.23
2022-07-26T20:44:57.592Z,7.88
2022-07-26T20:50:19.171Z,15.30
2022-07-26T20:55:40.875Z,9.68
2022-07-26T21:01:01.666Z,9.63
2022-07-26T21:06:22.280Z,6.63
2022-07-26T21:11:45.508Z,7.32
2022-07-26T21:17:11.297Z,7.03
2022-07-26T21:22:33.308Z,7.57
2022-07-26T21:27:54.006Z,6.10
2022-07-26T21:33:14.970Z,7.82
2022-07-26T21:38:35.691Z,7.57
2022-07-26T21:43:56.195Z,6.45
2022-07-26T21:49:18.433Z,9.38
2022-07-26T21:54:39.161Z,9.07
2022-07-26T21:59:59.954Z,9.68
2022-07-26T22:05:35.750Z,9.27
2022-07-26T22:10:56.617Z,6.15
2022-07-26T22:16:17.535Z,8.00
2022-07-26T22:21:38.570Z,8.98
2022-07-26T22:26:59.495Z,8.98
2022-07-26T22:32:20.397Z,9.38
2022-07-26T22:37:41.510Z,13.85
2022-07-26T22:43:02.967Z,11.85
2022-07-26T22:48:23.900Z,15.88
2022-07-26T22:53:44.789Z,15.52
2022-07-26T22:59:05.456Z,17.95
2022-07-26T23:04:26.007Z,24.98
2022-07-26T23:09:48.656Z,17.67
2022-07-26T23:15:10.431Z,21.98
2022-07-26T23:20:31.105Z,22.83
2022-07-26T23:25:51.839Z,20.80
2022-07-26T23:31:14.705Z,19.70
2022-07-26T23:36:35.407Z,23.98
2022-07-26T23:41:56.335Z,24.77
2022-07-26T23:47:17.245Z,23.02
2022-07-26T23:52:38.291Z,26.88
2022-07-26T23:57:58.968Z,22.25
